Weather History for Marion, VA

Change the Weather History Date:

Tuesday, January 1, 2013

  Actual Average (KGEV) Record (KGEV)
Temperature  
Mean Temperature 38 °F -  
Max Temperature 43 °F 45 °F 64 °F (2005)
Min Temperature 34 °F 27 °F -1 °F (1969)
Degree Days  
Heating Degree Days 26    
Moisture  
Dew Point 38 °F    
Average Humidity 92    
Maximum Humidity 100    
Minimum Humidity 54    
Precipitation  
Precipitation 0.24 in - - ()
Sea Level Pressure  
Sea Level Pressure 30.00 in    
Wind  
Wind Speed 11 mph (WSW)    
Max Wind Speed 18 mph    
Max Gust Speed 32 mph    
Visibility 5 miles    
Events Fog , Rain    
Averages and records for this station are not official NWS values.
T = Trace of Precipitation, MM = Missing Value Source: NWS Daily Summary

Daily Weather History Graph

Daily Weather History Graph

Search for Another Location

Airport:

Trip Planner

Search our weather history database for the weather conditions in past years. The results will help you decide how hot, cold, wet, or windy it might be!

Date:

Astronomy

Jan. 01, 2013 Rise Set
Actual Time 7:38 AM EST 5:19 PM EST
Civil Twilight 7:09 AM EST 5:48 PM EST
Nautical Twilight 6:37 AM EST 6:21 PM EST
Astronomical Twilight 6:05 AM EST 6:52 PM EST
Moon 9:42 PM EST (1/1) 9:56 AM EST (1/1)
Length of Visible Light 10h 39m
Length of Day
9h 41m
Waning Gibbous, 83% of the Moon is Illuminated
Jan 1
Waning Gibbous
Jan 4
Last Quarter
Jan 11
New
Jan 18
First Quarter
Jan 26
Full

Hourly Weather History & Observations

Time (EST) Temp. Windchill Dew Point Humidity Pressure Visibility Wind Dir Wind Speed Gust Speed Precip Events Conditions
12:15 AM 36.3 °F 29.5 °F 25.2 °F 64% 30.09 in 10.0 mi WSW 9.2 mph - N/A   Light Drizzle
12:35 AM 36.3 °F 28.4 °F 25.5 °F 65% 30.09 in 10.0 mi WSW 11.5 mph - N/A Rain Light Rain
1:15 AM 36.0 °F 27.5 °F 25.7 °F 66% 30.06 in 10.0 mi West 12.7 mph - N/A   Overcast
1:35 AM 36.0 °F 27.5 °F 25.3 °F 65% 30.05 in 10.0 mi WSW 12.7 mph - N/A   Overcast
1:55 AM 36.5 °F 28.7 °F 25.3 °F 64% 30.06 in 10.0 mi WSW 11.5 mph - N/A   Overcast
2:15 AM 37.2 °F 30.0 °F 24.1 °F 59% 30.05 in 10.0 mi WSW 10.4 mph - N/A   Overcast
2:35 AM 37.4 °F 30.8 °F 24.4 °F 60% 30.05 in 10.0 mi WSW 9.2 mph - N/A   Overcast
3:15 AM 37.8 °F 30.7 °F 23.9 °F 57% 30.05 in 10.0 mi WSW 10.4 mph - N/A   Overcast
3:35 AM 38.1 °F 31.7 °F 23.7 °F 56% 30.06 in 10.0 mi WSW 9.2 mph 18.4 mph N/A   Overcast
3:55 AM 38.3 °F 32.5 °F 23.5 °F 55% 30.04 in 10.0 mi WSW 8.1 mph - N/A   Overcast
4:15 AM 38.7 °F 32.4 °F 23.2 °F 54% 30.06 in 10.0 mi WSW 9.2 mph - N/A   Overcast
4:35 AM 37.8 °F 31.3 °F 24.8 °F 60% 30.06 in 10.0 mi WSW 9.2 mph - N/A   Light Drizzle
4:55 AM 36.9 °F 30.1 °F 28.4 °F 71% 30.03 in 10.0 mi SSW 9.2 mph - N/A   Overcast
5:15 AM 35.4 °F 27.8 °F 32.0 °F 87% 30.04 in 5.0 mi WSW 10.4 mph - N/A   Drizzle
5:35 AM 35.2 °F 28.1 °F 34.9 °F 99% 30.03 in 4.0 mi WSW 9.2 mph - N/A   Drizzle
6:15 AM 34.9 °F 26.2 °F 34.9 °F 100% 30.03 in 4.0 mi WSW 12.7 mph - N/A Rain Light Rain
6:35 AM 35.2 °F 26.6 °F 35.2 °F 100% 30.03 in 3.0 mi WSW 12.7 mph - 0.01 in   Drizzle
7:15 AM 36.5 °F 29.2 °F 36.5 °F 100% 30.04 in 2.0 mi WSW 10.4 mph - 0.01 in Rain Heavy Rain
7:35 AM 36.9 °F 28.2 °F 36.9 °F 100% 30.04 in 2.5 mi WSW 13.8 mph - 0.02 in Rain Rain
7:55 AM 37.4 °F 28.5 °F 37.4 °F 100% 30.03 in 2.5 mi West 15.0 mph 19.6 mph 0.05 in Rain Light Rain
8:15 AM 37.9 °F 30.0 °F 37.9 °F 100% 30.04 in 3.0 mi WSW 12.7 mph 19.6 mph N/A Rain Light Rain
8:35 AM 37.8 °F 30.2 °F 37.8 °F 100% 30.02 in 1.0 mi WSW 11.5 mph - 0.01 in Rain Rain
8:55 AM 38.8 °F 30.0 °F 38.8 °F 100% 30.03 in 1.5 mi West 16.1 mph - 0.01 in   Overcast
9:15 AM 41.2 °F 33.7 °F 41.2 °F 100% 30.02 in 10.0 mi WSW 13.8 mph 23.0 mph N/A   Overcast
9:35 AM 41.4 °F 35.7 °F 41.4 °F 100% 30.02 in 10.0 mi WSW 9.2 mph 18.4 mph N/A Rain Rain
9:55 AM 40.6 °F 36.0 °F 40.6 °F 100% 30.00 in 4.0 mi SW 6.9 mph - N/A   Overcast
10:15 AM 42.4 °F 35.3 °F 42.4 °F 100% 30.03 in 10.0 mi West 13.8 mph 19.6 mph N/A   Overcast
10:35 AM 42.4 °F 34.7 °F 42.4 °F 100% 30.00 in 7.0 mi WSW 16.1 mph - N/A   Overcast
10:55 AM 42.8 °F 34.5 °F 42.8 °F 100% 30.03 in 4.0 mi West 18.4 mph 29.9 mph N/A   Overcast
11:15 AM 42.8 °F 36.6 °F 42.8 °F 100% 30.00 in 3.0 mi SW 11.5 mph 17.3 mph N/A   Overcast
11:35 AM 41.7 °F 35.2 °F 41.7 °F 100% 30.00 in 0.8 mi WSW 11.5 mph - N/A   Drizzle
11:55 AM 41.2 °F 33.7 °F 41.2 °F 100% 29.96 in 0.2 mi WSW 13.8 mph 18.4 mph N/A Fog Fog
12:15 PM 43.2 °F 35.6 °F 43.2 °F 100% 29.97 in 2.0 mi West 16.1 mph 27.6 mph N/A   Overcast
12:35 PM 43.3 °F 36.5 °F 43.3 °F 100% 29.96 in 2.0 mi West 13.8 mph 32.2 mph N/A   Overcast
12:55 PM 43.9 °F 39.3 °F 43.9 °F 100% 29.96 in 10.0 mi West 8.1 mph - N/A   Overcast
1:15 PM 43.7 °F 36.9 °F 43.7 °F 100% 29.93 in 2.5 mi West 13.8 mph 17.3 mph N/A   Overcast
1:35 PM 43.0 °F 35.7 °F 43.0 °F 100% 29.94 in 0.2 mi WSW 15.0 mph 24.2 mph N/A Fog Fog
1:55 PM 42.8 °F 35.4 °F 42.8 °F 100% 29.93 in 0.2 mi WSW 15.0 mph 18.4 mph N/A Fog Fog
2:15 PM 42.8 °F 34.8 °F 42.8 °F 100% 29.94 in 0.2 mi WSW 17.3 mph 24.2 mph N/A Fog Fog
2:35 PM 42.8 °F 35.8 °F 42.8 °F 100% 29.92 in 0.2 mi WSW 13.8 mph 21.9 mph N/A Fog Fog
2:55 PM 42.8 °F 35.1 °F 42.8 °F 100% 29.91 in 0.2 mi WSW 16.1 mph 23.0 mph N/A Fog Fog
3:15 PM 42.8 °F 36.6 °F 42.8 °F 100% 29.93 in 0.2 mi West 11.5 mph 16.1 mph N/A Fog Fog
3:35 PM 43.3 °F 37.2 °F 43.3 °F 100% 29.95 in 0.8 mi WSW 11.5 mph - N/A   Overcast
3:55 PM 43.2 °F 37.9 °F 43.2 °F 100% 29.95 in 0.2 mi SW 9.2 mph - N/A Fog Fog
4:15 PM 43.2 °F 37.9 °F 43.2 °F 100% 29.96 in 0.2 mi WSW 9.2 mph - N/A Fog Fog
4:35 PM 43.2 °F 39.0 °F 43.2 °F 100% 29.96 in 0.2 mi WSW 6.9 mph - N/A Fog Fog
4:55 PM 42.8 °F 36.2 °F 42.8 °F 100% 29.97 in 0.2 mi WSW 12.7 mph - N/A Fog Fog
5:15 PM 42.8 °F 36.6 °F 42.8 °F 100% 29.96 in 0.2 mi SW 11.5 mph 16.1 mph N/A Fog Fog
5:35 PM 42.8 °F 36.6 °F 42.8 °F 100% 29.96 in 0.2 mi West 11.5 mph - N/A Fog Fog
5:55 PM 42.8 °F 35.8 °F 42.8 °F 100% 29.96 in 0.8 mi WSW 13.8 mph 20.7 mph N/A   Overcast
6:15 PM 42.8 °F 37.0 °F 42.8 °F 100% 29.97 in 1.2 mi West 10.4 mph - N/A   Overcast
6:35 PM 42.4 °F 35.7 °F 42.4 °F 100% 29.99 in 10.0 mi West 12.7 mph 18.4 mph N/A   Overcast
6:55 PM 42.1 °F 37.7 °F 42.1 °F 100% 29.98 in 10.0 mi WSW 6.9 mph - 0.01 in Rain Light Rain
7:15 PM 41.9 °F 38.2 °F 41.9 °F 100% 29.98 in 10.0 mi WSW 5.8 mph - N/A Rain Rain
7:35 PM 41.4 °F 37.6 °F 41.4 °F 100% 29.97 in 10.0 mi WSW 5.8 mph - 0.01 in Rain Rain
7:55 PM 41.2 °F 36.6 °F 41.2 °F 100% 29.97 in 7.0 mi West 6.9 mph - 0.01 in   Drizzle
8:15 PM 41.2 °F 36.6 °F 41.2 °F 100% 29.97 in 7.0 mi West 6.9 mph - 0.01 in Rain Light Rain
8:35 PM 41.4 °F 36.2 °F 41.4 °F 100% 29.98 in 4.0 mi WSW 8.1 mph - 0.02 in Rain Light Rain
8:55 PM 41.4 °F 36.2 °F 41.4 °F 100% 29.97 in 2.5 mi WSW 8.1 mph - 0.04 in Rain Light Rain
9:15 PM 41.9 °F 36.9 °F 41.9 °F 100% 29.96 in 2.5 mi WSW 8.1 mph - 0.02 in Rain Light Rain
9:35 PM 41.9 °F 36.9 °F 41.9 °F 100% 29.97 in 2.0 mi WSW 8.1 mph - 0.03 in   Drizzle
9:55 PM 42.1 °F 36.6 °F 42.1 °F 100% 29.96 in 2.0 mi WSW 9.2 mph - 0.05 in Rain Light Rain
10:15 PM 42.1 °F 36.6 °F 42.1 °F 100% 29.98 in 3.0 mi West 9.2 mph - 0.02 in Rain Light Rain
10:35 PM 42.1 °F 38.4 °F 42.1 °F 100% 29.96 in 3.0 mi WSW 5.8 mph - 0.03 in Rain Light Rain
10:55 PM 42.1 °F 37.7 °F 42.1 °F 100% 29.97 in 1.5 mi WSW 6.9 mph - 0.04 in Rain Rain
11:15 PM 42.1 °F 39.2 °F 42.1 °F 100% 29.96 in 2.0 mi WSW 4.6 mph - 0.01 in Rain Rain
11:35 PM 42.1 °F 38.4 °F 42.1 °F 100% 29.96 in 1.8 mi WNW 5.8 mph - 0.02 in   Drizzle
11:55 PM 41.2 °F 39.2 °F 41.2 °F 100% 29.96 in 7.0 mi WNW 3.5 mph - 0.02 in   Drizzle